Time;durP1;ratioP1;P1;durP2;ratioP2;P2;SDS_P1;SDS_P2;PMS_P1;PMS_P2;Temp;Humidity;BMP_temperature;BMP_pressure;BME280_temperature;BME280_humidity;BME280_pressure;Samples;Min_cycle;Max_cycle;Signal;HPM_P1;HPM_P2
2022/09/26 00:00:49;;;;;;;6.97;2.50;;;14.00;99.90;;;;;;4042390;29;20037;-60
2022/09/26 00:02:49;;;;;;;3.80;2.47;;;14.10;99.90;;;;;;4045376;29;20373;-60
2022/09/26 00:04:50;;;;;;;4.65;2.95;;;14.00;99.90;;;;;;4044983;29;20049;-60
2022/09/26 00:06:53;;;;;;;3.85;2.30;;;14.00;99.90;;;;;;4040629;29;20048;-60
2022/09/26 00:08:55;;;;;;;3.78;2.40;;;14.10;99.90;;;;;;4041406;29;20039;-60
2022/09/26 00:11:01;;;;;;;4.57;2.60;;;14.10;99.90;;;;;;4041324;29;20613;-60
2022/09/26 00:13:01;;;;;;;4.18;2.78;;;14.10;99.90;;;;;;4044311;29;20047;-61
2022/09/26 00:15:02;;;;;;;5.45;2.95;;;14.10;99.90;;;;;;4042152;29;20473;-61
2022/09/26 00:17:03;;;;;;;3.95;2.58;;;14.10;99.90;;;;;;4039163;29;20044;-60
2022/09/26 00:19:04;;;;;;;3.75;2.50;;;14.10;99.90;;;;;;4044573;29;20032;-60
2022/09/26 00:21:06;;;;;;;6.20;2.38;;;14.10;99.90;;;;;;4041197;29;20036;-60
2022/09/26 00:23:06;;;;;;;5.00;2.70;;;14.10;99.90;;;;;;4045756;29;20037;-60
2022/09/26 00:25:07;;;;;;;8.30;2.40;;;14.10;99.90;;;;;;4043193;29;20092;-64
2022/09/26 00:27:08;;;;;;;3.97;2.30;;;14.10;99.90;;;;;;4041252;29;20044;-62
2022/09/26 00:29:10;;;;;;;3.70;2.30;;;14.10;99.90;;;;;;4041390;29;21112;-61
2022/09/26 00:31:15;;;;;;;3.95;2.80;;;14.10;99.90;;;;;;4043229;29;20033;-60
2022/09/26 00:33:15;;;;;;;4.57;2.85;;;14.10;99.90;;;;;;4041280;29;20147;-60
2022/09/26 00:35:16;;;;;;;5.55;2.08;;;14.10;99.90;;;;;;4041789;29;20050;-60
2022/09/26 00:37:17;;;;;;;4.03;2.55;;;14.10;99.90;;;;;;4043739;29;20036;-60
2022/09/26 00:39:17;;;;;;;3.92;2.40;;;14.10;99.90;;;;;;4042248;29;20452;-60
2022/09/26 00:41:18;;;;;;;2.55;2.03;;;14.10;99.90;;;;;;4042783;29;20041;-60
2022/09/26 00:43:27;;;;;;;3.35;2.63;;;14.10;99.90;;;;;;4039687;29;20056;-60
2022/09/26 00:45:30;;;;;;;3.38;2.25;;;14.10;99.90;;;;;;4043227;29;20029;-60
2022/09/26 00:47:37;;;;;;;7.72;2.65;;;14.10;99.90;;;;;;4040540;29;20066;-60
2022/09/26 00:49:43;;;;;;;4.30;2.53;;;14.10;99.90;;;;;;4040421;29;20033;-60
2022/09/26 00:51:50;;;;;;;3.40;2.88;;;14.10;99.90;;;;;;4041463;29;20039;-60
2022/09/26 00:53:52;;;;;;;4.60;3.17;;;14.10;99.90;;;;;;4039953;29;20047;-60
2022/09/26 00:56:04;;;;;;;4.35;2.80;;;14.10;99.90;;;;;;4043362;29;20690;-60
2022/09/26 00:58:18;;;;;;;7.03;3.40;;;14.00;99.90;;;;;;4043850;29;20083;-60
2022/09/26 01:00:18;;;;;;;;;;;14.00;99.90;;;;;;4039762;29;20320;-60
2022/09/26 01:02:20;;;;;;;7.25;3.38;;;14.00;99.90;;;;;;4045300;29;19967;-60
2022/09/26 01:04:24;;;;;;;8.18;3.20;;;13.90;99.90;;;;;;4039715;29;20140;-60
2022/09/26 01:06:25;;;;;;;4.32;3.20;;;13.90;99.90;;;;;;4040658;29;20061;-60
2022/09/26 01:08:35;;;;;;;5.05;3.58;;;13.90;99.90;;;;;;4042412;29;20029;-61
2022/09/26 01:10:36;;;;;;;6.75;3.63;;;13.90;99.90;;;;;;4041488;29;20044;-60
2022/09/26 01:12:37;;;;;;;4.80;3.20;;;13.90;99.90;;;;;;4043137;29;20043;-60
2022/09/26 01:14:40;;;;;;;4.72;3.10;;;13.80;99.90;;;;;;4044756;29;20037;-60
2022/09/26 01:16:45;;;;;;;4.78;3.72;;;13.80;99.90;;;;;;4040744;29;20497;-60
2022/09/26 01:18:46;;;;;;;4.90;3.30;;;13.80;99.90;;;;;;4043466;29;20504;-61
2022/09/26 01:21:02;;;;;;;4.95;3.15;;;13.80;99.90;;;;;;4039393;29;20048;-60
2022/09/26 01:23:40;;;;;;;4.22;2.80;;;13.90;99.90;;;;;;4037800;29;20033;-60
2022/09/26 01:26:04;;;;;;;8.30;3.50;;;13.80;99.90;;;;;;4041366;29;20493;-60
2022/09/26 01:28:19;;;;;;;3.17;2.67;;;13.80;99.90;;;;;;4042907;29;20119;-60
2022/09/26 01:30:27;;;;;;;10.55;3.72;;;13.80;99.90;;;;;;4039391;29;20033;-60
2022/09/26 01:32:52;;;;;;;4.47;3.08;;;13.90;99.90;;;;;;4040511;29;20374;-60
2022/09/26 01:35:07;;;;;;;4.47;2.78;;;13.80;99.90;;;;;;4046743;29;20029;-61
2022/09/26 01:37:22;;;;;;;5.13;2.72;;;13.80;99.90;;;;;;4040583;29;20508;-60
2022/09/26 01:39:31;;;;;;;7.13;3.28;;;13.80;99.90;;;;;;4042610;29;20124;-60
2022/09/26 01:41:54;;;;;;;5.70;3.42;;;13.80;99.90;;;;;;4038676;29;20048;-60
2022/09/26 01:44:01;;;;;;;5.72;3.03;;;13.80;99.90;;;;;;4038631;29;20388;-60
2022/09/26 01:46:34;;;;;;;4.57;2.90;;;13.80;99.90;;;;;;4038969;29;20039;-60
2022/09/26 01:49:23;;;;;;;4.75;3.30;;;13.80;99.90;;;;;;4063229;29;20040;-60
2022/09/26 01:51:38;;;;;;;4.85;3.13;;;13.80;99.90;;;;;;4042549;29;20051;-60
2022/09/26 01:53:47;;;;;;;4.90;2.97;;;13.70;99.90;;;;;;4041141;29;20045;-61
2022/09/26 01:56:06;;;;;;;5.93;3.35;;;13.70;99.90;;;;;;4040604;29;20125;-59
2022/09/26 01:58:23;;;;;;;4.45;3.13;;;13.70;99.90;;;;;;4039476;29;20092;-60
2022/09/26 02:00:25;;;;;;;4.38;2.80;;;13.70;99.90;;;;;;4040361;29;20040;-64
2022/09/26 02:02:34;;;;;;;6.03;2.85;;;13.70;99.90;;;;;;4036349;29;20128;-60
2022/09/26 02:04:40;;;;;;;3.22;2.47;;;13.60;99.90;;;;;;4042635;29;20045;-60
2022/09/26 02:06:50;;;;;;;3.47;2.30;;;13.70;99.90;;;;;;4040898;29;20107;-60
2022/09/26 02:08:58;;;;;;;5.25;3.10;;;13.70;99.90;;;;;;4038965;29;20118;-60
2022/09/26 02:11:09;;;;;;;4.78;2.65;;;13.70;99.90;;;;;;4042797;29;20029;-61
2022/09/26 02:13:19;;;;;;;4.43;2.70;;;13.70;99.90;;;;;;4046341;29;20044;-61
2022/09/26 02:15:24;;;;;;;6.95;2.95;;;13.60;99.90;;;;;;4057099;29;20032;-60
2022/09/26 02:17:32;;;;;;;6.45;3.30;;;13.60;99.90;;;;;;4039510;29;20397;-60
2022/09/26 02:19:55;;;;;;;3.67;2.30;;;13.70;99.90;;;;;;4038400;29;20041;-60
2022/09/26 02:21:57;;;;;;;3.05;2.35;;;13.70;99.90;;;;;;4043113;29;20120;-60
2022/09/26 02:23:58;;;;;;;4.00;2.75;;;13.70;99.90;;;;;;4039837;29;20499;-61
2022/09/26 02:25:59;;;;;;;3.10;2.35;;;13.70;99.90;;;;;;4047064;29;20045;-61
2022/09/26 02:28:00;;;;;;;4.35;2.80;;;13.70;99.90;;;;;;4042977;29;20044;-61
2022/09/26 02:30:00;;;;;;;3.53;2.47;;;13.70;99.90;;;;;;4038953;29;20029;-60
2022/09/26 02:32:11;;;;;;;4.13;2.67;;;13.70;99.90;;;;;;4039456;29;20536;-60
2022/09/26 02:34:12;;;;;;;4.30;2.67;;;13.70;99.90;;;;;;4043140;29;20041;-60
2022/09/26 02:36:13;;;;;;;4.03;2.72;;;13.70;99.90;;;;;;4038075;29;20041;-60
2022/09/26 02:38:13;;;;;;;5.07;2.53;;;13.70;99.90;;;;;;4042909;29;20065;-60
2022/09/26 02:40:14;;;;;;;5.18;2.58;;;13.70;99.90;;;;;;4043875;29;20024;-60
2022/09/26 02:42:42;;;;;;;5.57;2.40;;;13.70;99.90;;;;;;4042939;29;20028;-60
2022/09/26 02:45:06;;;;;;;5.32;2.60;;;13.70;99.90;;;;;;4039118;29;20037;-60
2022/09/26 02:47:32;;;;;;;4.50;2.70;;;13.60;99.90;;;;;;4034553;29;20058;-60
2022/09/26 02:49:54;;;;;;;8.15;3.30;;;13.70;99.90;;;;;;4042723;29;20033;-60
2022/09/26 02:52:01;;;;;;;6.10;3.10;;;13.60;99.90;;;;;;4041354;29;20026;-60
2022/09/26 02:54:09;;;;;;;4.38;3.17;;;13.60;99.90;;;;;;4038108;29;20044;-61
2022/09/26 02:56:26;;;;;;;4.15;2.80;;;13.50;99.90;;;;;;4040871;29;20043;-60
2022/09/26 02:58:47;;;;;;;4.82;3.03;;;13.50;99.90;;;;;;4038204;29;20044;-60
2022/09/26 03:00:58;;;;;;;3.47;2.58;;;13.60;99.90;;;;;;4042510;29;20052;-60
2022/09/26 03:03:11;;;;;;;4.05;2.90;;;13.60;99.90;;;;;;4041007;29;20079;-61
2022/09/26 03:05:16;;;;;;;3.80;2.65;;;13.60;99.90;;;;;;4036753;29;20115;-61
2022/09/26 03:07:28;;;;;;;4.50;2.83;;;13.60;99.90;;;;;;4042944;29;20064;-60
2022/09/26 03:09:29;;;;;;;3.45;2.67;;;13.60;99.90;;;;;;4044053;29;20579;-61
2022/09/26 03:11:31;;;;;;;4.75;3.05;;;13.60;99.90;;;;;;4045719;29;20041;-60
2022/09/26 03:13:37;;;;;;;4.05;3.05;;;13.60;99.90;;;;;;4042538;29;20489;-60
2022/09/26 03:15:40;;;;;;;8.60;3.10;;;13.60;99.90;;;;;;4044659;29;20047;-60
2022/09/26 03:17:45;;;;;;;4.30;2.92;;;13.50;99.90;;;;;;4043541;29;20772;-61
2022/09/26 03:19:52;;;;;;;3.63;2.78;;;13.50;99.90;;;;;;4043796;29;20388;-60
2022/09/26 03:21:53;;;;;;;5.93;2.90;;;13.50;99.90;;;;;;4044121;29;20532;-60
2022/09/26 03:23:56;;;;;;;3.85;2.40;;;13.50;99.90;;;;;;4044048;29;20654;-60
2022/09/26 03:26:09;;;;;;;6.10;3.40;;;13.50;99.90;;;;;;4045289;29;20055;-60
2022/09/26 03:28:11;;;;;;;5.57;2.90;;;13.60;99.90;;;;;;4043875;29;20891;-61
2022/09/26 03:30:14;;;;;;;8.43;3.33;;;13.50;99.90;;;;;;4042272;29;20036;-61
2022/09/26 03:32:14;;;;;;;7.05;3.33;;;13.50;99.90;;;;;;4045291;29;20116;-60
2022/09/26 03:34:16;;;;;;;4.72;3.05;;;13.50;99.90;;;;;;4046046;29;20029;-60
2022/09/26 03:36:17;;;;;;;6.47;2.85;;;13.50;99.90;;;;;;4042465;29;20025;-60
2022/09/26 03:38:18;;;;;;;4.28;2.75;;;13.40;99.90;;;;;;4040614;29;20108;-60
2022/09/26 03:40:18;;;;;;;6.07;3.53;;;13.40;99.90;;;;;;4043810;29;20040;-60
2022/09/26 03:42:19;;;;;;;5.40;3.28;;;13.40;99.90;;;;;;4045893;29;20033;-60
2022/09/26 03:44:20;;;;;;;5.35;3.58;;;13.50;99.90;;;;;;4046880;29;20056;-60
2022/09/26 03:46:21;;;;;;;7.10;3.53;;;13.40;99.90;;;;;;4039764;29;20035;-60
2022/09/26 03:48:21;;;;;;;5.25;3.25;;;13.30;99.90;;;;;;4042935;29;20507;-60
2022/09/26 03:50:23;;;;;;;4.43;2.75;;;13.40;99.90;;;;;;4042629;29;20421;-60
2022/09/26 03:52:23;;;;;;;7.45;3.75;;;13.40;99.90;;;;;;4045438;29;20047;-60
2022/09/26 03:54:24;;;;;;;6.38;3.00;;;13.30;99.90;;;;;;4041890;29;20029;-60
2022/09/26 03:56:25;;;;;;;3.60;2.65;;;13.30;99.90;;;;;;4048248;29;20024;-60
2022/09/26 03:58:26;;;;;;;6.00;3.30;;;13.40;99.90;;;;;;4043943;29;20085;-60
2022/09/26 04:00:27;;;;;;;6.40;3.30;;;13.30;99.90;;;;;;4039585;29;20124;-60
2022/09/26 04:02:27;;;;;;;4.82;2.78;;;13.30;99.90;;;;;;4043469;29;20032;-60
2022/09/26 04:04:28;;;;;;;4.82;2.60;;;13.30;99.90;;;;;;4044317;29;20108;-60
2022/09/26 04:06:28;;;;;;;6.28;3.00;;;13.30;99.90;;;;;;4042075;29;20033;-60
2022/09/26 04:08:30;;;;;;;7.13;3.05;;;13.30;99.90;;;;;;4041385;29;20044;-62
2022/09/26 04:10:30;;;;;;;8.40;3.30;;;13.30;99.90;;;;;;4045905;29;20044;-61
2022/09/26 04:12:31;;;;;;;5.20;3.05;;;13.30;99.90;;;;;;4048173;29;20037;-61
2022/09/26 04:14:32;;;;;;;6.35;3.20;;;13.30;99.90;;;;;;4041099;29;20059;-60
2022/09/26 04:16:32;;;;;;;7.25;3.33;;;13.30;99.90;;;;;;4041375;29;20032;-60
2022/09/26 04:18:34;;;;;;;5.57;2.92;;;13.30;99.90;;;;;;4053971;29;20039;-60
2022/09/26 04:20:34;;;;;;;6.55;3.13;;;13.30;99.90;;;;;;4039081;29;20037;-60
2022/09/26 04:22:35;;;;;;;5.38;3.53;;;13.30;99.90;;;;;;4038725;29;20164;-60
2022/09/26 04:24:35;;;;;;;4.63;2.95;;;13.20;99.90;;;;;;4044235;29;20037;-60
2022/09/26 04:26:38;;;;;;;6.20;3.33;;;13.30;99.90;;;;;;4042847;29;20032;-60
2022/09/26 04:28:39;;;;;;;;;;;13.30;99.90;;;;;;4038889;29;20100;-60
2022/09/26 04:30:40;;;;;;;6.07;2.78;;;13.30;99.90;;;;;;4049245;29;19920;-60
2022/09/26 04:32:40;;;;;;;5.15;3.15;;;13.30;99.90;;;;;;4041523;29;20037;-62
2022/09/26 04:34:41;;;;;;;4.32;2.92;;;13.30;99.90;;;;;;4042912;29;20393;-61
2022/09/26 04:36:42;;;;;;;5.20;3.05;;;13.30;99.90;;;;;;4041219;29;20389;-61
2022/09/26 04:38:43;;;;;;;5.45;3.10;;;13.30;99.90;;;;;;4040787;29;20124;-60
2022/09/26 04:40:43;;;;;;;8.35;3.00;;;13.30;99.90;;;;;;4041434;29;20075;-60
2022/09/26 04:42:44;;;;;;;7.72;2.85;;;13.20;99.90;;;;;;4041614;29;20033;-60
2022/09/26 04:44:45;;;;;;;6.05;3.20;;;13.30;99.90;;;;;;4044814;29;20041;-61
2022/09/26 04:46:46;;;;;;;9.48;3.30;;;13.20;99.90;;;;;;4043871;29;20043;-61
2022/09/26 04:48:51;;;;;;;3.65;2.38;;;13.20;99.90;;;;;;4038541;29;20116;-61
2022/09/26 04:50:52;;;;;;;5.75;2.80;;;13.20;99.90;;;;;;4040799;29;20111;-61
2022/09/26 04:52:52;;;;;;;4.32;2.55;;;13.20;99.90;;;;;;4042745;29;20037;-61
2022/09/26 04:54:53;;;;;;;7.10;3.08;;;13.20;99.90;;;;;;4044224;29;20482;-61
2022/09/26 04:56:54;;;;;;;7.65;3.33;;;13.20;99.90;;;;;;4043542;29;20169;-61
2022/09/26 04:58:56;;;;;;;5.88;3.10;;;13.20;99.90;;;;;;4040056;29;20033;-60
2022/09/26 05:01:02;;;;;;;5.03;2.80;;;13.10;99.90;;;;;;4045655;29;20040;-61
2022/09/26 05:03:03;;;;;;;7.03;3.25;;;13.20;99.90;;;;;;4043562;29;20117;-61
2022/09/26 05:05:07;;;;;;;8.02;3.30;;;13.20;99.90;;;;;;4042731;29;20079;-62
2022/09/26 05:07:08;;;;;;;5.45;3.13;;;13.20;99.90;;;;;;4041147;29;20037;-61
2022/09/26 05:09:08;;;;;;;5.15;2.90;;;13.20;99.90;;;;;;4041976;29;20025;-61
2022/09/26 05:11:09;;;;;;;7.95;3.33;;;13.20;99.90;;;;;;4041157;29;20358;-61
2022/09/26 05:13:10;;;;;;;8.90;3.53;;;13.20;99.90;;;;;;4042724;29;20485;-61
2022/09/26 05:15:10;;;;;;;7.05;3.25;;;13.20;99.90;;;;;;4043139;29;20047;-62
2022/09/26 05:17:11;;;;;;;6.72;3.15;;;13.20;99.90;;;;;;4042343;29;20025;-62
2022/09/26 05:19:11;;;;;;;8.15;3.25;;;13.20;99.90;;;;;;4040849;29;20048;-61
2022/09/26 05:21:12;;;;;;;6.78;3.60;;;13.30;99.90;;;;;;4039632;29;20044;-64
2022/09/26 05:26:18;;;;;;;5.95;3.15;;;13.20;99.90;;;;;;4040442;29;20584;-64
2022/09/26 05:28:00;;;;;;;6.60;3.50;;;13.20;99.90;;;;;;4039858;29;20051;-63
2022/09/26 05:30:00;;;;;;;8.85;3.80;;;13.20;99.90;;;;;;4040801;29;20065;-63
2022/09/26 05:32:01;;;;;;;9.73;3.92;;;13.20;99.90;;;;;;4043336;29;20052;-64
2022/09/26 05:34:07;;;;;;;7.30;3.60;;;13.30;99.90;;;;;;4043829;29;20052;-64
2022/09/26 05:36:08;;;;;;;12.07;3.75;;;13.30;99.90;;;;;;4039440;29;20041;-64
2022/09/26 05:38:08;;;;;;;6.72;3.38;;;13.20;99.90;;;;;;4042980;29;20506;-64
2022/09/26 05:42:28;;;;;;;6.82;3.65;;;13.20;99.90;;;;;;4041444;29;20610;-63
2022/09/26 05:44:29;;;;;;;7.28;3.45;;;13.30;99.90;;;;;;4046635;29;20044;-64
2022/09/26 05:46:30;;;;;;;9.45;3.33;;;13.20;99.90;;;;;;4047261;29;20516;-64
2022/09/26 05:48:33;;;;;;;8.50;3.67;;;13.30;99.90;;;;;;4043552;29;20068;-66
2022/09/26 05:50:34;;;;;;;7.43;3.65;;;13.30;99.90;;;;;;4037604;29;20069;-64
2022/09/26 05:52:38;;;;;;;11.05;4.18;;;13.20;99.90;;;;;;4044211;29;20076;-64
2022/09/26 05:54:38;;;;;;;5.53;3.20;;;13.20;99.90;;;;;;4043695;29;20487;-64
2022/09/26 05:56:39;;;;;;;10.52;3.63;;;13.20;99.90;;;;;;4043942;29;20044;-64
2022/09/26 05:58:40;;;;;;;7.68;3.60;;;13.30;99.90;;;;;;4041928;29;20045;-63
2022/09/26 06:00:41;;;;;;;12.27;4.03;;;13.30;99.90;;;;;;4042493;29;20412;-63
2022/09/26 06:02:42;;;;;;;6.18;3.20;;;13.20;99.90;;;;;;4041204;29;20040;-66
2022/09/26 06:04:43;;;;;;;7.80;3.55;;;13.20;99.90;;;;;;4045560;29;20051;-64
2022/09/26 06:06:43;;;;;;;6.43;3.17;;;13.20;99.90;;;;;;4038927;29;20540;-64
2022/09/26 06:08:45;;;;;;;12.10;2.97;;;13.20;99.90;;;;;;4039417;29;20473;-64
2022/09/26 06:10:45;;;;;;;5.70;3.20;;;13.10;99.90;;;;;;4039868;29;20588;-63
2022/09/26 06:12:46;;;;;;;5.07;2.60;;;13.10;99.90;;;;;;4037684;29;20146;-64
2022/09/26 06:14:47;;;;;;;8.95;3.88;;;13.10;99.90;;;;;;4050886;29;20028;-64
2022/09/26 06:16:47;;;;;;;8.60;2.90;;;13.10;99.90;;;;;;4038790;29;20111;-64
2022/09/26 06:18:50;;;;;;;8.75;3.33;;;13.10;99.90;;;;;;4035494;29;20046;-63
2022/09/26 06:20:51;;;;;;;8.38;3.55;;;13.10;99.90;;;;;;4036971;29;20489;-63
2022/09/26 06:22:53;;;;;;;6.53;3.08;;;13.10;99.90;;;;;;4035715;29;20048;-64
2022/09/26 06:24:54;;;;;;;6.85;3.50;;;13.10;99.90;;;;;;4040764;29;20025;-63
2022/09/26 06:26:54;;;;;;;5.75;3.17;;;13.10;99.90;;;;;;4036411;29;20062;-64
2022/09/26 06:28:58;;;;;;;10.23;2.92;;;13.10;99.90;;;;;;4039047;29;20249;-63
2022/09/26 06:30:58;;;;;;;6.47;2.88;;;13.10;99.90;;;;;;4037807;29;20108;-63
2022/09/26 06:32:59;;;;;;;5.93;2.88;;;13.10;99.90;;;;;;4038015;29;20521;-64
2022/09/26 06:34:59;;;;;;;8.60;3.10;;;13.10;99.90;;;;;;4038606;29;20421;-63
2022/09/26 06:37:00;;;;;;;5.75;2.90;;;13.10;99.90;;;;;;4034605;29;20049;-63
2022/09/26 06:39:00;;;;;;;5.20;2.47;;;13.10;99.90;;;;;;4038197;29;20037;-63
2022/09/26 06:41:01;;;;;;;6.10;3.20;;;13.10;99.90;;;;;;4035962;29;20040;-63
2022/09/26 06:43:02;;;;;;;6.75;3.22;;;13.10;99.90;;;;;;4038879;29;20043;-64
2022/09/26 06:45:08;;;;;;;6.72;2.90;;;13.10;99.90;;;;;;4037004;29;20044;-64
2022/09/26 06:47:11;;;;;;;7.70;3.17;;;13.10;99.90;;;;;;4036763;29;20048;-63
2022/09/26 06:49:12;;;;;;;6.57;3.00;;;13.10;99.90;;;;;;4038365;29;20045;-67
2022/09/26 06:51:13;;;;;;;6.38;2.55;;;13.10;99.90;;;;;;4034413;29;20048;-64
2022/09/26 06:53:13;;;;;;;5.85;3.00;;;13.10;99.90;;;;;;4035253;29;20044;-64
2022/09/26 06:55:14;;;;;;;5.03;2.78;;;13.10;99.90;;;;;;4037484;29;20577;-64
2022/09/26 06:57:14;;;;;;;5.38;2.67;;;13.20;99.90;;;;;;4041758;29;20144;-64
2022/09/26 06:59:15;;;;;;;5.68;2.72;;;13.20;99.90;;;;;;4036584;29;20068;-64
2022/09/26 07:01:17;;;;;;;8.23;3.42;;;13.10;99.90;;;;;;4038428;29;20504;-63
2022/09/26 07:03:18;;;;;;;5.25;2.80;;;13.20;99.90;;;;;;4035370;29;20045;-64
2022/09/26 07:05:20;;;;;;;10.20;3.25;;;13.20;99.90;;;;;;4052460;29;20127;-63
2022/09/26 07:07:21;;;;;;;7.30;3.75;;;13.20;99.90;;;;;;4044970;29;20135;-64
2022/09/26 07:09:21;;;;;;;3.45;2.63;;;13.10;99.90;;;;;;4038357;29;21393;-64
2022/09/26 07:11:23;;;;;;;6.95;2.85;;;13.10;99.90;;;;;;4037730;29;20061;-63
2022/09/26 07:13:24;;;;;;;5.30;2.87;;;13.10;99.90;;;;;;4034988;29;20068;-64
2022/09/26 07:15:29;;;;;;;7.65;3.72;;;13.00;99.90;;;;;;4040129;29;20044;-64
2022/09/26 07:17:30;;;;;;;8.63;2.78;;;13.10;99.90;;;;;;4039940;29;20033;-64
2022/09/26 07:19:30;;;;;;;4.78;2.42;;;13.00;99.90;;;;;;4040386;29;20045;-64
2022/09/26 07:21:31;;;;;;;4.22;2.45;;;13.10;99.90;;;;;;4055822;29;20041;-64
2022/09/26 07:23:32;;;;;;;5.30;2.60;;;13.00;99.90;;;;;;4040602;29;20045;-64
2022/09/26 07:25:33;;;;;;;9.02;3.20;;;13.00;99.90;;;;;;4037884;29;21096;-63
2022/09/26 07:27:34;;;;;;;7.63;3.38;;;13.00;99.90;;;;;;4037802;29;20076;-64
2022/09/26 07:29:34;;;;;;;5.63;3.05;;;12.90;99.90;;;;;;4036106;29;20044;-64
2022/09/26 07:31:35;;;;;;;3.50;2.40;;;12.90;99.90;;;;;;4038231;29;20056;-64
2022/09/26 07:33:38;;;;;;;4.90;2.40;;;12.90;99.90;;;;;;4051290;29;20404;-64
2022/09/26 07:35:39;;;;;;;5.65;2.65;;;13.00;99.90;;;;;;4037843;29;20041;-64
2022/09/26 07:37:41;;;;;;;3.22;2.30;;;13.00;99.90;;;;;;4040069;29;20041;-63
2022/09/26 07:39:42;;;;;;;4.15;2.55;;;13.00;99.90;;;;;;4051757;29;20044;-63
2022/09/26 07:41:44;;;;;;;4.82;2.30;;;13.00;99.90;;;;;;4037398;29;20148;-63
2022/09/26 07:43:44;;;;;;;3.78;2.30;;;13.00;99.90;;;;;;4036412;29;20137;-63
2022/09/26 07:50:24;;;;;;;6.10;2.47;;;12.90;99.90;;;;;;4036740;29;20577;-64
2022/09/26 07:52:29;;;;;;;3.47;2.10;;;12.90;99.90;;;;;;4037941;29;20033;-63
2022/09/26 07:54:30;;;;;;;8.25;2.38;;;12.90;99.90;;;;;;4037435;29;20109;-63
2022/09/26 07:56:33;;;;;;;4.45;2.35;;;12.90;99.90;;;;;;4036808;29;20061;-63
2022/09/26 07:58:39;;;;;;;5.38;2.30;;;12.90;99.90;;;;;;4038294;29;20064;-63
2022/09/26 08:00:39;;;;;;;3.83;2.03;;;12.90;99.90;;;;;;4036975;29;20037;-63
2022/09/26 08:02:45;;;;;;;4.85;1.90;;;12.90;99.90;;;;;;4036471;29;20053;-64
2022/09/26 08:04:46;;;;;;;5.15;2.50;;;12.90;99.90;;;;;;4037461;29;20112;-63
2022/09/26 08:06:47;;;;;;;6.28;2.35;;;12.80;99.90;;;;;;4037088;29;20521;-63
2022/09/26 08:08:52;;;;;;;3.78;2.00;;;12.90;99.90;;;;;;4036810;29;20059;-63
2022/09/26 08:10:53;;;;;;;3.58;2.00;;;12.80;99.90;;;;;;4038105;29;20040;-63
2022/09/26 08:12:54;;;;;;;4.82;1.92;;;12.80;99.90;;;;;;4036089;29;20047;-63
2022/09/26 08:14:54;;;;;;;4.30;1.77;;;12.80;99.90;;;;;;4036537;29;20476;-63
2022/09/26 08:16:55;;;;;;;7.70;2.13;;;12.80;99.90;;;;;;4038368;29;20192;-63
2022/09/26 08:18:57;;;;;;;3.75;1.77;;;12.80;99.90;;;;;;4038391;29;20064;-64
2022/09/26 08:20:58;;;;;;;4.65;1.80;;;12.80;99.90;;;;;;4036661;29;20045;-63
2022/09/26 08:22:59;;;;;;;6.97;1.83;;;12.80;99.90;;;;;;4036480;29;20100;-63
2022/09/26 08:24:59;;;;;;;3.00;1.88;;;12.80;99.90;;;;;;4037038;29;20041;-63
2022/09/26 08:27:00;;;;;;;6.28;1.65;;;12.80;99.90;;;;;;4036822;29;20108;-63
2022/09/26 08:29:01;;;;;;;5.75;2.03;;;12.90;99.90;;;;;;4036152;29;20045;-63
2022/09/26 08:31:03;;;;;;;4.45;2.00;;;12.80;99.90;;;;;;4037540;29;20052;-64
2022/09/26 08:33:04;;;;;;;;;;;12.90;99.90;;;;;;4036676;29;20052;-63
2022/09/26 08:35:05;;;;;;;6.65;1.70;;;12.90;99.90;;;;;;4036766;29;19924;-64
2022/09/26 08:37:06;;;;;;;4.45;1.67;;;12.90;99.90;;;;;;4036865;29;20047;-63
2022/09/26 08:39:08;;;;;;;5.10;1.80;;;12.90;99.90;;;;;;4035278;29;20052;-64
2022/09/26 08:41:31;;;;;;;3.33;1.60;;;12.90;99.90;;;;;;4036181;29;20069;-64
2022/09/26 08:43:41;;;;;;;;;;;13.00;99.90;;;;;;4031659;29;20048;-63
2022/09/26 08:48:38;;;;;;;7.68;2.08;;;12.90;99.90;;;;;;4036925;29;20033;-63
2022/09/26 08:51:08;;;;;;;2.28;1.52;;;12.90;99.90;;;;;;4036674;29;20041;-64
2022/09/26 08:53:14;;;;;;;2.92;1.60;;;12.90;99.90;;;;;;4034087;29;20052;-63
2022/09/26 08:55:17;;;;;;;3.13;1.50;;;13.00;99.90;;;;;;4037463;29;20453;-64
2022/09/26 08:57:40;;;;;;;6.32;2.10;;;13.00;99.90;;;;;;4039208;29;20045;-63
2022/09/26 08:59:43;;;;;;;2.78;1.77;;;13.00;99.90;;;;;;4041165;29;21156;-64
2022/09/26 09:01:46;;;;;;;4.25;1.55;;;13.00;99.90;;;;;;4036176;29;20048;-65
2022/09/26 09:04:33;;;;;;;3.70;1.73;;;12.90;99.90;;;;;;4036306;29;20445;-63
2022/09/26 09:06:34;;;;;;;2.83;1.60;;;12.90;99.90;;;;;;4049438;29;20543;-66
2022/09/26 09:08:38;;;;;;;4.05;1.65;;;12.90;99.90;;;;;;4051691;29;20134;-65
2022/09/26 09:11:06;;;;;;;3.72;1.33;;;12.90;99.90;;;;;;4050841;29;20164;-64
2022/09/26 09:13:23;;;;;;;2.92;1.65;;;13.00;99.90;;;;;;4054109;29;20108;-64
2022/09/26 09:15:41;;;;;;;4.10;1.90;;;12.90;99.90;;;;;;4036127;29;20029;-64
2022/09/26 09:18:06;;;;;;;4.20;1.63;;;12.80;99.90;;;;;;4037186;29;20400;-64
2022/09/26 09:20:31;;;;;;;2.95;1.48;;;12.80;99.90;;;;;;4036868;29;20052;-64
2022/09/26 09:22:46;;;;;;;3.38;1.70;;;12.90;99.90;;;;;;4035437;29;20169;-64
2022/09/26 09:25:08;;;;;;;4.25;1.90;;;12.90;99.90;;;;;;4034607;29;20037;-64
2022/09/26 09:27:40;;;;;;;3.80;2.03;;;12.90;99.90;;;;;;4035056;29;20049;-65
2022/09/26 09:29:58;;;;;;;2.92;1.88;;;12.90;99.90;;;;;;4036052;29;20072;-65
2022/09/26 09:32:02;;;;;;;4.25;1.92;;;12.90;99.90;;;;;;4037501;29;20049;-65
2022/09/26 09:34:11;;;;;;;3.42;1.65;;;12.90;99.90;;;;;;4034924;29;20093;-65
2022/09/26 09:36:33;;;;;;;4.05;1.90;;;12.90;99.90;;;;;;4037039;29;20037;-65
2022/09/26 09:38:37;;;;;;;3.53;1.80;;;12.90;99.90;;;;;;4034439;29;20127;-65
2022/09/26 09:40:43;;;;;;;4.68;1.83;;;12.90;99.90;;;;;;4037157;29;20824;-65
2022/09/26 09:42:50;;;;;;;7.63;2.05;;;12.80;99.90;;;;;;4049343;29;20040;-65
2022/09/26 09:45:27;;;;;;;6.88;1.60;;;12.90;99.90;;;;;;4035724;29;20132;-65
2022/09/26 09:47:28;;;;;;;2.92;1.60;;;12.90;99.90;;;;;;4056548;29;20060;-65
2022/09/26 09:49:29;;;;;;;6.68;1.65;;;12.90;99.90;;;;;;4036991;29;20037;-65
2022/09/26 09:51:40;;;;;;;4.53;1.90;;;12.90;99.90;;;;;;4035756;29;20121;-65
2022/09/26 09:53:55;;;;;;;2.10;1.58;;;13.00;99.90;;;;;;4050421;29;20036;-65
2022/09/26 09:56:36;;;;;;;3.50;1.83;;;13.00;99.90;;;;;;4036021;29;20374;-65
2022/09/26 09:58:51;;;;;;;6.35;1.92;;;13.00;99.90;;;;;;4045613;29;20187;-65
2022/09/26 10:01:08;;;;;;;3.88;1.80;;;13.10;99.90;;;;;;4034672;29;20108;-65
2022/09/26 10:03:24;;;;;;;4.78;1.60;;;13.10;99.90;;;;;;4036542;29;20037;-65
2022/09/26 10:05:43;;;;;;;3.15;1.30;;;13.10;99.90;;;;;;4034460;29;20509;-65
2022/09/26 10:07:47;;;;;;;5.25;1.88;;;13.10;99.90;;;;;;4037224;29;20048;-65
2022/09/26 10:09:50;;;;;;;3.38;1.67;;;13.20;99.90;;;;;;4036005;29;20600;-64
2022/09/26 10:11:52;;;;;;;4.97;2.00;;;13.20;99.90;;;;;;4036015;29;20124;-65
2022/09/26 10:13:56;;;;;;;4.75;1.75;;;13.20;99.90;;;;;;4035882;29;20080;-65
2022/09/26 10:16:03;;;;;;;4.25;1.85;;;13.30;99.90;;;;;;4036917;29;20071;-65
2022/09/26 10:18:18;;;;;;;2.92;1.58;;;13.30;99.90;;;;;;4035548;29;20129;-64
2022/09/26 10:20:38;;;;;;;2.53;1.42;;;13.30;99.90;;;;;;4038623;29;20081;-65
2022/09/26 10:22:43;;;;;;;3.60;1.70;;;13.30;99.90;;;;;;4040606;29;20037;-64
2022/09/26 10:24:46;;;;;;;4.20;1.70;;;13.40;99.90;;;;;;4036952;29;20143;-65
2022/09/26 10:26:48;;;;;;;4.15;1.92;;;13.40;99.90;;;;;;4037675;29;20039;-65
2022/09/26 10:28:56;;;;;;;4.53;2.08;;;13.50;99.90;;;;;;4039715;29;20036;-65
2022/09/26 10:31:09;;;;;;;5.60;2.08;;;13.50;99.90;;;;;;4036510;29;20040;-65
2022/09/26 10:33:24;;;;;;;3.20;1.70;;;13.50;99.90;;;;;;4045070;29;20045;-65
2022/09/26 10:35:44;;;;;;;4.70;1.63;;;13.60;99.90;;;;;;4039472;29;20417;-64
2022/09/26 10:37:56;;;;;;;3.60;1.70;;;13.60;99.90;;;;;;4038671;29;20404;-65
2022/09/26 10:42:19;;;;;;;6.18;2.33;;;13.70;99.90;;;;;;4037882;29;20120;-65
2022/09/26 10:44:23;;;;;;;3.00;1.40;;;13.70;99.90;;;;;;4053613;29;20042;-65
2022/09/26 10:46:25;;;;;;;5.55;1.73;;;13.70;99.90;;;;;;4037470;29;20037;-65
2022/09/26 10:48:42;;;;;;;3.38;1.40;;;13.80;99.90;;;;;;4038774;29;20481;-64
2022/09/26 10:50:51;;;;;;;4.75;2.08;;;13.80;99.90;;;;;;4040636;29;20044;-64
2022/09/26 10:53:12;;;;;;;3.38;1.48;;;13.90;99.90;;;;;;4043076;29;20048;-65
2022/09/26 10:55:40;;;;;;;5.40;1.92;;;13.90;99.90;;;;;;4040897;29;20049;-65
2022/09/26 10:57:53;;;;;;;6.53;1.52;;;14.00;99.90;;;;;;4065428;29;20123;-64
2022/09/26 10:59:56;;;;;;;5.40;1.40;;;14.00;99.90;;;;;;4041081;29;20107;-64
2022/09/26 11:01:58;;;;;;;7.18;1.98;;;14.00;99.90;;;;;;4039615;29;20037;-65
2022/09/26 11:04:13;;;;;;;5.82;1.70;;;14.10;99.90;;;;;;4044083;29;20159;-65
2022/09/26 11:06:43;;;;;;;7.53;1.60;;;14.10;99.90;;;;;;4040135;29;20041;-65
2022/09/26 11:08:50;;;;;;;5.57;1.88;;;14.20;99.90;;;;;;4038244;29;20037;-64
2022/09/26 11:10:51;;;;;;;7.35;1.90;;;14.10;99.90;;;;;;4038960;29;20405;-64